Detall de PIREP

Printer-friendly versionPDF version

[2012/12/22 11:19:00]
Flight IATA:CT1004
Pilot Number:012
Company ICAO:CAT
Aircraft Type:MD11/E
PAX:240
Aircraft Registration:PAX
Departing Airport: LFMP
Destination Airport: GMMN
Alternate Airport:GMME
Online: VATSIM
Route:BGR UN975 BCN UM985 PIMOS UN869 RBT DCT BISMI
Flight Level:F370
No Slew and time accel
No pause
Crash detect
Detect pilot in Cockpit between each 30 and 45 minutes
11:19 Zero fuel Weight: 410930 Lbs, Fuel Weight: 56827 Lbs
11:19 VATSIM:LFMP 221100Z 19005KT 160V220 CAVOK 15/08 Q1023 NOSIG
11:19 VATSIM:GMMN 221100Z 07005KT CAVOK 16/11 Q1025 NOSIG
11:19 VOICE CATALONIAN / X-MAS CHARTER
11:29 Parking Brakes off
11:32 Take-off
11:32 Take off Weight: 466285 Lbs
11:32 Wind: 192º @ 005 Knots Heading: 327º
11:32 POS N42º 44´ 53´´ E002º 51´ 59´´
11:33 Gear Up: 182 Knots
11:33 Flaps:3 at 182 Knots
11:33 Flaps:2 at 211 Knots
11:33 Flaps:3 at 211 Knots
11:33 Flaps:2 at 211 Knots
11:33 Flaps:1 at 211 Knots
11:33 Flaps:0 at 204 Knots
11:48 Wind:324º@060 Knots Heading: 239º Ground Speed: 474 Knots Altitude 35984 ft
11:49 TOC
11:49 Fuel Weight: 45176 Lb
12:03 Wind:323º@064 Knots Heading: 235º Ground Speed: 476 Knots Altitude 37316 ft
12:18 Wind:339º@032 Knots Heading: 237º Ground Speed: 482 Knots Altitude 37362 ft
12:33 Wind:032º@012 Knots Heading: 226º Ground Speed: 485 Knots Altitude 37381 ft
12:48 Wind:025º@009 Knots Heading: 212º Ground Speed: 482 Knots Altitude 37342 ft
13:01 TOD
13:01 Fuel Weight: 26996 Lb
13:03 Wind:310º@008 Knots Heading: 217º Ground Speed: 477 Knots Altitude 33641 ft
13:16 Flaps:1 at 231 Knots
13:18 Wind:163º@003 Knots Heading: 264º Ground Speed: 280 Knots Altitude 9734 ft
13:19 Flaps:2 at 238 Knots
13:20 Flaps:3 at 238 Knots
13:23 Flaps:4 at 235 Knots
13:23 Flaps:3 at 234 Knots
13:24Flaps:4 at 233 Knots
13:24 Gear Down: 225 Knots
13:24 Flaps:5 at 222 Knots
13:24 Flaps:6 at 212 Knots
13:24 Flaps:7 at 206 Knots
13:24 Flaps:6 at 204 Knots
13:24 Flaps:7 at 189 Knots
13:26 TouchDown:Rate -258 ft/min Speed: 152 Knots
13:26 VATSIM:GMMN 221300Z 05005KT 020V080 CAVOK 21/12 Q1024 NOSIG
13:26 Land
13:26 Wind:059º@006 Knots
13:26 Heading: 346º
13:26 Flight Duration: 01:54
13:26 Landing Weight: 434296 Lbs
13:26 POS N33º 21´ 59´´ W007º 35´ 26´´
13:29 Parking brakes on
13:29 Block to Block Duration: 02:00
13:29 Final Fuel: 23062 Lbls
13:29 Spent Fuel: 33765 Lbls
13:29 Flight Length: 835 NM
13:29 TOD Land Length: 141 NM

Exportar CSV

Powered by Drupal - Modified by Danger4k